Time;durP1;ratioP1;P1;durP2;ratioP2;P2;SDS_P1;SDS_P2;PMS_P1;PMS_P2;Temp;Humidity;BMP_temperature;BMP_pressure;BME280_temperature;BME280_humidity;BME280_pressure;Samples;Min_cycle;Max_cycle;Signal;HPM_P1;HPM_P2
2022/05/17 00:01:07;;;;;;;8.50;4.20;;;17.50;60.80;;;;;;1851073;77;21016;-58
2022/05/17 00:03:36;;;;;;;4.85;3.75;;;17.50;61.00;;;;;;1850932;77;21019;-58
2022/05/17 00:06:06;;;;;;;4.72;3.50;;;17.50;60.90;;;;;;1850899;77;21011;-57
2022/05/17 00:08:35;;;;;;;7.92;3.42;;;17.50;60.90;;;;;;1851016;77;21023;-58
2022/05/17 00:11:06;;;;;;;3.80;3.40;;;17.40;60.70;;;;;;1850896;77;21020;-57
2022/05/17 00:13:35;;;;;;;3.30;3.00;;;17.40;60.80;;;;;;1850891;77;21016;-57
2022/05/17 00:16:05;;;;;;;6.55;3.60;;;17.40;61.10;;;;;;1850928;77;21044;-58
2022/05/17 00:18:34;;;;;;;5.90;3.75;;;17.30;61.10;;;;;;1850992;77;21090;-58
2022/05/17 00:21:05;;;;;;;5.45;3.60;;;17.30;61.40;;;;;;1851045;77;21102;-58
2022/05/17 00:23:36;;;;;;;4.10;3.30;;;17.30;61.50;;;;;;1850922;77;20988;-58
2022/05/17 00:26:07;;;;;;;6.60;3.65;;;17.30;61.60;;;;;;1851057;77;21019;-57
2022/05/17 00:28:37;;;;;;;4.83;3.50;;;17.30;61.80;;;;;;1850934;77;21011;-57
2022/05/17 00:31:07;;;;;;;5.03;3.60;;;17.40;61.80;;;;;;1851053;77;21089;-58
2022/05/17 00:33:37;;;;;;;4.60;3.62;;;17.40;62.30;;;;;;1850885;77;21082;-57
2022/05/17 00:36:06;;;;;;;4.35;3.58;;;17.40;62.50;;;;;;1851031;77;20995;-58
2022/05/17 00:38:35;;;;;;;4.15;3.80;;;17.40;62.50;;;;;;1850924;77;21016;-58
2022/05/17 00:41:05;;;;;;;4.10;3.70;;;17.40;62.90;;;;;;1850983;77;21011;-58
2022/05/17 00:46:34;;;;;;;4.10;3.70;;;17.40;63.40;;;;;;1851025;77;21004;-58
2022/05/17 00:49:06;;;;;;;4.20;3.90;;;17.40;63.60;;;;;;1849899;77;21023;-58
2022/05/17 00:51:35;;;;;;;4.17;3.65;;;17.40;63.80;;;;;;1851045;77;21110;-58
2022/05/17 00:54:07;;;;;;;4.67;4.20;;;17.40;64.40;;;;;;1851025;77;21082;-57
2022/05/17 00:56:39;;;;;;;7.92;3.77;;;17.30;64.40;;;;;;1850794;77;21024;-58
2022/05/17 00:59:09;;;;;;;4.95;3.20;;;17.40;64.30;;;;;;1849425;77;21008;-58
2022/05/17 01:01:39;;;;;;;6.50;3.75;;;17.40;64.70;;;;;;1851024;77;21136;-58
2022/05/17 01:04:20;;;;;;;6.72;3.98;;;17.40;64.90;;;;;;1851033;77;21028;-59
2022/05/17 01:06:54;;;;;;;3.98;3.50;;;17.30;64.90;;;;;;1850996;77;21028;-58
2022/05/17 01:09:24;;;;;;;7.28;4.03;;;17.30;64.70;;;;;;1850592;77;21032;-58
2022/05/17 01:11:53;;;;;;;4.03;3.62;;;17.30;64.70;;;;;;1848680;77;21035;-58
2022/05/17 01:17:10;;;;;;;6.15;4.37;;;17.30;65.20;;;;;;1847706;78;21000;-58
2022/05/17 01:19:41;;;;;;;4.85;3.42;;;17.30;65.20;;;;;;1847768;78;21118;-58
2022/05/17 01:22:10;;;;;;;4.70;4.30;;;17.20;65.50;;;;;;1847765;78;21089;-58
2022/05/17 01:24:40;;;;;;;3.98;3.67;;;17.20;65.60;;;;;;1847772;78;20996;-58
2022/05/17 01:27:27;;;;;;;5.35;4.20;;;17.10;65.50;;;;;;1847770;78;21011;-57
2022/05/17 01:29:57;;;;;;;5.25;4.47;;;17.20;65.70;;;;;;1847870;78;21110;-58
2022/05/17 01:32:26;;;;;;;5.87;3.90;;;17.20;65.90;;;;;;1847642;78;21035;-58
2022/05/17 01:34:55;;;;;;;6.78;3.90;;;17.10;66.20;;;;;;1847537;78;21086;-58
2022/05/17 01:37:25;;;;;;;4.33;3.92;;;17.10;66.10;;;;;;1847619;78;21016;-58
2022/05/17 01:39:54;;;;;;;4.80;4.40;;;17.10;66.20;;;;;;1847837;78;21019;-58
2022/05/17 01:42:23;;;;;;;4.85;4.10;;;17.00;66.50;;;;;;1847606;78;21016;-58
2022/05/17 01:44:52;;;;;;;10.28;5.78;;;17.00;66.70;;;;;;1847650;78;21071;-58
2022/05/17 01:47:22;;;;;;;13.62;5.80;;;16.90;67.00;;;;;;1847643;78;21134;-58
2022/05/17 01:49:51;;;;;;;13.28;6.22;;;16.90;66.90;;;;;;1847663;78;21020;-58
2022/05/17 01:52:20;;;;;;;9.85;6.33;;;16.90;67.20;;;;;;1847573;78;21114;-58
2022/05/17 01:54:49;;;;;;;5.12;4.62;;;17.00;67.50;;;;;;1847617;78;21094;-58
2022/05/17 01:57:20;;;;;;;4.33;3.92;;;17.00;67.60;;;;;;1847628;78;21085;-57
2022/05/17 01:59:49;;;;;;;8.33;5.05;;;17.00;67.70;;;;;;1847764;78;21000;-58
2022/05/17 02:02:19;;;;;;;9.15;4.87;;;17.00;67.60;;;;;;1847651;77;21028;-58
2022/05/17 02:04:48;;;;;;;6.20;3.92;;;17.00;67.40;;;;;;1847610;77;21028;-58
2022/05/17 02:07:17;;;;;;;5.17;3.83;;;17.00;67.50;;;;;;1847590;78;21441;-57
2022/05/17 02:09:47;;;;;;;5.58;4.50;;;17.00;67.40;;;;;;1847635;78;21020;-57
2022/05/17 02:12:17;;;;;;;6.35;4.08;;;17.00;67.40;;;;;;1849434;77;21133;-58
2022/05/17 02:14:47;;;;;;;4.67;4.25;;;17.00;67.80;;;;;;1851086;77;21016;-57
2022/05/17 02:17:16;;;;;;;5.33;3.98;;;17.10;67.50;;;;;;1850907;77;20992;-58
2022/05/17 02:19:45;;;;;;;7.17;4.53;;;17.00;67.30;;;;;;1851007;77;21087;-57
2022/05/17 02:22:15;;;;;;;7.08;4.00;;;17.00;67.30;;;;;;1850965;77;21031;-57
2022/05/17 02:24:45;;;;;;;4.50;4.10;;;17.10;67.20;;;;;;1851029;77;21532;-58
2022/05/17 02:27:14;;;;;;;4.65;4.00;;;17.10;67.40;;;;;;1850981;77;21016;-58
2022/05/17 02:29:44;;;;;;;6.35;4.47;;;17.00;67.50;;;;;;1850861;77;21482;-58
2022/05/17 02:32:14;;;;;;;5.25;4.70;;;17.00;67.70;;;;;;1850891;77;20992;-58
2022/05/17 02:34:43;;;;;;;5.95;4.10;;;17.00;67.70;;;;;;1850974;77;21011;-58
2022/05/17 02:37:15;;;;;;;9.85;4.55;;;17.00;67.50;;;;;;1850807;77;21066;-57
2022/05/17 02:39:45;;;;;;;9.73;4.05;;;17.10;67.50;;;;;;1850994;77;21090;-58
2022/05/17 02:42:14;;;;;;;6.83;3.70;;;17.10;67.50;;;;;;1850903;77;21000;-57
2022/05/17 02:44:43;;;;;;;4.17;3.77;;;17.10;68.10;;;;;;1850867;77;21073;-58
2022/05/17 02:47:12;;;;;;;6.28;3.77;;;17.10;67.40;;;;;;1850941;77;21136;-58
2022/05/17 02:49:44;;;;;;;4.75;3.62;;;17.10;67.50;;;;;;1850978;77;20995;-58
2022/05/17 02:52:13;;;;;;;6.28;3.70;;;17.20;67.50;;;;;;1850959;77;21098;-58
2022/05/17 02:54:43;;;;;;;4.78;4.37;;;17.20;67.50;;;;;;1850867;77;21055;-58
2022/05/17 02:57:12;;;;;;;4.97;3.72;;;17.20;67.50;;;;;;1850924;77;21149;-58
2022/05/17 02:59:41;;;;;;;5.25;3.67;;;17.20;67.60;;;;;;1851078;77;21019;-58
2022/05/17 03:02:12;;;;;;;4.75;3.50;;;17.20;67.30;;;;;;1851010;77;21323;-58
2022/05/17 03:04:41;;;;;;;9.13;4.67;;;17.20;67.20;;;;;;1851010;77;21085;-58
2022/05/17 03:07:11;;;;;;;6.75;3.27;;;17.20;67.10;;;;;;1850937;77;21015;-58
2022/05/17 03:09:40;;;;;;;4.22;3.20;;;17.20;67.10;;;;;;1851091;77;21023;-58
2022/05/17 03:12:10;;;;;;;7.78;3.95;;;17.20;67.10;;;;;;1850035;77;21051;-58
2022/05/17 03:14:39;;;;;;;11.43;4.90;;;17.20;67.10;;;;;;1847863;78;21024;-58
2022/05/17 03:17:14;;;;;;;7.72;3.83;;;17.20;67.10;;;;;;1847717;78;21004;-57
2022/05/17 03:19:44;;;;;;;7.87;3.87;;;17.20;67.00;;;;;;1847849;77;21070;-57
2022/05/17 03:22:13;;;;;;;5.08;3.62;;;17.20;67.10;;;;;;1847836;77;21024;-58
2022/05/17 03:24:43;;;;;;;6.78;3.62;;;17.20;67.20;;;;;;1848069;78;21047;-57
2022/05/17 03:27:12;;;;;;;7.42;4.10;;;17.20;67.50;;;;;;1847870;78;21070;-57
2022/05/17 03:29:42;;;;;;;7.15;3.77;;;17.20;67.60;;;;;;1847777;77;21438;-58
2022/05/17 03:32:11;;;;;;;4.97;3.52;;;17.20;68.00;;;;;;1847866;78;21040;-58
2022/05/17 03:34:41;;;;;;;11.22;4.20;;;17.20;68.00;;;;;;1847742;78;21027;-57
2022/05/17 03:37:10;;;;;;;9.70;3.58;;;17.30;67.90;;;;;;1847670;78;21090;-57
2022/05/17 03:39:39;;;;;;;8.00;4.15;;;17.30;67.80;;;;;;1847776;78;21015;-57
2022/05/17 03:42:11;;;;;;;10.28;3.58;;;17.40;67.70;;;;;;1847813;78;21082;-58
2022/05/17 03:44:41;;;;;;;5.35;3.80;;;17.50;67.70;;;;;;1847818;78;21406;-57
2022/05/17 03:47:10;;;;;;;3.80;3.40;;;17.50;67.50;;;;;;1847795;78;21467;-57
2022/05/17 03:49:40;;;;;;;9.30;4.22;;;17.50;67.60;;;;;;1847806;78;20996;-58
2022/05/17 03:52:09;;;;;;;5.33;3.83;;;17.50;67.50;;;;;;1847798;78;21517;-58
2022/05/17 03:54:39;;;;;;;3.70;3.40;;;17.50;67.50;;;;;;1847761;78;21097;-58
2022/05/17 03:57:09;;;;;;;5.05;3.52;;;17.50;67.60;;;;;;1847702;78;21024;-58
2022/05/17 03:59:39;;;;;;;10.58;3.62;;;17.50;67.50;;;;;;1847702;78;21208;-58
2022/05/17 04:02:09;;;;;;;4.67;3.50;;;17.50;67.40;;;;;;1847865;78;21051;-58
2022/05/17 04:04:39;;;;;;;5.25;3.77;;;17.50;67.40;;;;;;1847772;78;21094;-57
2022/05/17 04:07:08;;;;;;;9.05;3.80;;;17.50;67.30;;;;;;1847759;78;21093;-57
2022/05/17 04:09:37;;;;;;;4.72;3.40;;;17.60;67.10;;;;;;1847722;78;21066;-57
2022/05/17 04:12:07;;;;;;;6.47;4.30;;;17.60;67.00;;;;;;1847627;77;21008;-57
2022/05/17 04:14:37;;;;;;;5.47;3.65;;;17.60;67.70;;;;;;1851079;77;21074;-58
2022/05/17 04:17:06;;;;;;;6.55;3.98;;;17.60;67.20;;;;;;1850995;77;21016;-58
2022/05/17 04:19:37;;;;;;;33.78;7.72;;;17.70;66.90;;;;;;1850912;77;21144;-57
2022/05/17 04:22:11;;;;;;;5.95;3.50;;;17.80;66.60;;;;;;1850868;77;21019;-58
2022/05/17 04:24:43;;;;;;;8.83;4.25;;;17.90;66.40;;;;;;1850879;77;21024;-58
2022/05/17 04:27:12;;;;;;;6.65;3.37;;;17.90;66.20;;;;;;1850920;77;21007;-58
2022/05/17 04:29:42;;;;;;;4.62;3.15;;;17.90;66.20;;;;;;1850888;77;21016;-58
2022/05/17 04:32:11;;;;;;;7.10;3.75;;;17.90;66.10;;;;;;1851051;77;20996;-57
2022/05/17 04:34:40;;;;;;;4.83;2.75;;;17.90;66.10;;;;;;1850896;77;21506;-57
2022/05/17 04:37:10;;;;;;;7.80;3.65;;;17.90;66.10;;;;;;1850854;77;21188;-59
2022/05/17 04:39:40;;;;;;;7.17;4.30;;;17.90;66.10;;;;;;1850993;77;21027;-58
2022/05/17 04:42:10;;;;;;;6.08;3.10;;;17.90;66.30;;;;;;1850925;77;21015;-57
2022/05/17 04:44:40;;;;;;;4.58;3.17;;;17.90;66.10;;;;;;1851064;77;21019;-58
2022/05/17 04:47:09;;;;;;;7.85;3.50;;;17.90;66.20;;;;;;1850967;77;21016;-58
2022/05/17 04:49:39;;;;;;;7.35;3.87;;;17.90;66.20;;;;;;1850836;77;21119;-58
2022/05/17 04:52:08;;;;;;;4.75;3.60;;;17.90;66.20;;;;;;1850953;77;21019;-58
2022/05/17 04:54:38;;;;;;;10.68;4.03;;;17.90;66.20;;;;;;1850945;77;21027;-58
2022/05/17 04:57:08;;;;;;;4.90;3.65;;;18.00;66.00;;;;;;1850880;77;21015;-58
2022/05/17 04:59:37;;;;;;;3.42;2.80;;;18.10;65.90;;;;;;1850904;77;21015;-58
2022/05/17 05:02:07;;;;;;;7.55;3.50;;;18.20;65.80;;;;;;1850840;77;20988;-58
2022/05/17 05:04:38;;;;;;;7.05;3.17;;;18.20;65.50;;;;;;1851001;77;20996;-57
2022/05/17 05:07:08;;;;;;;7.28;3.42;;;18.30;65.40;;;;;;1850855;77;21047;-57
2022/05/17 05:09:37;;;;;;;4.42;2.90;;;18.30;65.10;;;;;;1850894;77;21015;-57
2022/05/17 05:12:07;;;;;;;11.88;5.78;;;18.30;65.00;;;;;;1850830;77;21019;-58
2022/05/17 05:14:36;;;;;;;3.87;3.25;;;18.30;64.80;;;;;;1850871;76;21055;-58
2022/05/17 05:17:06;;;;;;;6.40;3.20;;;18.30;64.80;;;;;;1850803;77;21015;-57
2022/05/17 05:19:36;;;;;;;7.60;3.67;;;18.30;64.80;;;;;;1850934;77;20992;-58
2022/05/17 05:22:06;;;;;;;8.13;3.83;;;18.30;64.90;;;;;;1850719;77;21085;-58
2022/05/17 05:24:35;;;;;;;4.42;2.85;;;18.40;64.90;;;;;;1850877;77;21446;-58
2022/05/17 05:27:05;;;;;;;3.98;3.05;;;18.40;64.60;;;;;;1850876;77;21057;-57
2022/05/17 05:29:35;;;;;;;8.20;3.58;;;18.30;64.60;;;;;;1850751;77;21047;-57
2022/05/17 05:32:05;;;;;;;5.83;3.40;;;18.40;64.70;;;;;;1850707;77;21070;-57
2022/05/17 05:34:34;;;;;;;16.67;4.62;;;18.40;64.60;;;;;;1850873;77;21094;-57
2022/05/17 05:37:05;;;;;;;9.35;3.62;;;18.50;64.60;;;;;;1850641;77;21678;-57
2022/05/17 05:39:34;;;;;;;10.30;3.47;;;18.50;64.50;;;;;;1850677;77;21549;-57
2022/05/17 05:42:05;;;;;;;4.95;3.15;;;18.60;64.20;;;;;;1850706;77;21737;-57
2022/05/17 05:44:35;;;;;;;5.70;3.72;;;18.60;64.30;;;;;;1850772;77;21074;-57
2022/05/17 05:47:04;;;;;;;11.28;3.40;;;18.60;64.50;;;;;;1850855;77;21027;-57
2022/05/17 05:49:34;;;;;;;4.65;2.98;;;18.70;64.50;;;;;;1850800;77;21085;-57
2022/05/17 05:52:03;;;;;;;4.67;2.87;;;18.80;64.70;;;;;;1850780;77;21094;-57
2022/05/17 05:54:33;;;;;;;5.85;3.05;;;18.80;64.40;;;;;;1850815;77;21011;-57
2022/05/17 05:57:02;;;;;;;5.80;2.83;;;18.90;64.50;;;;;;1850818;77;21093;-58
2022/05/17 05:59:32;;;;;;;3.33;2.92;;;19.10;64.40;;;;;;1851074;77;21085;-57
2022/05/17 06:02:01;;;;;;;8.38;3.72;;;19.20;64.10;;;;;;1850934;77;21038;-57
2022/05/17 06:04:31;;;;;;;6.55;3.22;;;19.20;64.00;;;;;;1850835;77;21024;-57
2022/05/17 06:07:02;;;;;;;7.22;3.83;;;19.20;64.10;;;;;;1850583;77;21101;-56
2022/05/17 06:09:31;;;;;;;7.78;3.42;;;19.40;64.30;;;;;;1850840;77;21020;-57
2022/05/17 06:12:01;;;;;;;5.30;3.15;;;19.40;64.20;;;;;;1850868;77;21039;-57
2022/05/17 06:14:31;;;;;;;3.42;2.90;;;19.40;64.10;;;;;;1850871;77;21141;-57
2022/05/17 06:17:00;;;;;;;5.72;3.22;;;19.40;64.10;;;;;;1850718;77;21012;-57
2022/05/17 06:19:32;;;;;;;6.42;3.37;;;19.60;64.20;;;;;;1850966;77;21028;-57
2022/05/17 06:22:01;;;;;;;4.35;3.00;;;19.70;64.00;;;;;;1851093;77;21438;-57
2022/05/17 06:24:31;;;;;;;4.28;3.20;;;19.90;63.80;;;;;;1851082;77;21501;-58
2022/05/17 06:27:01;;;;;;;6.47;3.05;;;20.10;63.30;;;;;;1850973;77;21014;-57
2022/05/17 06:29:30;;;;;;;5.35;3.10;;;20.20;62.90;;;;;;1851018;77;21020;-57
2022/05/17 06:31:59;;;;;;;3.25;2.58;;;20.40;62.50;;;;;;1850932;77;21015;-57
2022/05/17 06:34:30;;;;;;;5.00;4.00;;;20.50;62.20;;;;;;1850998;77;21011;-57
2022/05/17 06:36:59;;;;;;;6.97;2.95;;;20.60;62.00;;;;;;1851000;77;21078;-57
2022/05/17 06:39:29;;;;;;;6.80;3.20;;;20.70;61.70;;;;;;1850964;77;21086;-57
2022/05/17 06:41:58;;;;;;;5.47;2.92;;;20.80;61.80;;;;;;1850919;77;21035;-57
2022/05/17 06:44:30;;;;;;;7.65;3.92;;;20.90;61.40;;;;;;1850923;77;21101;-57
2022/05/17 06:46:59;;;;;;;7.60;2.83;;;21.10;61.00;;;;;;1850990;77;21085;-57
2022/05/17 06:49:29;;;;;;;5.50;3.40;;;21.10;60.60;;;;;;1851055;77;21015;-57
2022/05/17 06:52:02;;;;;;;6.33;2.90;;;21.20;60.40;;;;;;1851037;77;20995;-57
2022/05/17 06:54:32;;;;;;;7.75;2.95;;;21.40;59.90;;;;;;1850983;77;21452;-57
2022/05/17 06:57:06;;;;;;;5.55;2.83;;;21.50;59.20;;;;;;1851074;77;20993;-58
2022/05/17 06:59:36;;;;;;;4.65;2.72;;;21.60;58.60;;;;;;1851173;77;21141;-58
2022/05/17 07:02:06;;;;;;;5.33;3.40;;;21.60;58.60;;;;;;1850929;77;21051;-57
2022/05/17 07:04:36;;;;;;;6.35;2.67;;;21.60;58.40;;;;;;1851081;77;21137;-57
2022/05/17 07:07:06;;;;;;;6.70;3.10;;;21.60;58.60;;;;;;1850956;77;21058;-58
2022/05/17 07:09:36;;;;;;;7.08;3.50;;;21.80;58.10;;;;;;1851050;77;21088;-57
2022/05/17 07:14:53;;;;;;;7.45;2.70;;;21.90;57.90;;;;;;1851108;77;21052;-58
2022/05/17 07:17:23;;;;;;;3.52;2.60;;;22.00;57.70;;;;;;1850932;77;21011;-58
2022/05/17 07:19:52;;;;;;;3.20;2.42;;;22.10;57.70;;;;;;1850929;77;21023;-58
2022/05/17 07:22:22;;;;;;;5.42;2.77;;;22.10;57.00;;;;;;1850948;77;21081;-58
2022/05/17 07:24:51;;;;;;;6.17;3.52;;;22.10;56.90;;;;;;1851063;77;21019;-57
2022/05/17 07:27:21;;;;;;;3.90;2.47;;;22.10;56.60;;;;;;1850992;77;21035;-58
2022/05/17 07:29:50;;;;;;;5.85;2.75;;;22.20;57.10;;;;;;1851042;77;21008;-58
2022/05/17 07:32:20;;;;;;;8.03;3.40;;;22.20;57.40;;;;;;1850887;77;21125;-58
2022/05/17 07:34:49;;;;;;;3.77;2.70;;;22.30;56.90;;;;;;1850851;77;20988;-58
2022/05/17 07:37:19;;;;;;;5.55;2.92;;;22.20;57.10;;;;;;1849669;77;21114;-58
2022/05/17 07:39:48;;;;;;;6.17;3.05;;;22.30;57.20;;;;;;1850509;77;21089;-58
2022/05/17 07:42:17;;;;;;;3.92;2.58;;;22.40;57.30;;;;;;1850480;77;21015;-58
2022/05/17 07:44:47;;;;;;;5.80;3.92;;;22.40;57.30;;;;;;1850838;77;21020;-58
2022/05/17 07:47:16;;;;;;;5.40;2.72;;;22.50;57.30;;;;;;1850797;77;21020;-58
2022/05/17 07:49:45;;;;;;;5.35;2.85;;;22.50;57.50;;;;;;1850702;77;21059;-58
2022/05/17 07:52:14;;;;;;;11.55;3.02;;;22.60;57.10;;;;;;1850901;77;21077;-58
2022/05/17 07:54:44;;;;;;;5.08;2.80;;;22.60;56.10;;;;;;1850934;77;20996;-58
2022/05/17 07:57:13;;;;;;;4.30;2.72;;;22.60;56.30;;;;;;1850851;77;21012;-58
2022/05/17 07:59:43;;;;;;;4.55;3.02;;;22.70;56.50;;;;;;1851063;77;21024;-59
2022/05/17 08:02:12;;;;;;;11.00;3.95;;;22.70;56.40;;;;;;1848821;77;21004;-58
2022/05/17 08:04:42;;;;;;;4.83;2.85;;;22.80;56.30;;;;;;1827644;77;21108;-58
2022/05/17 08:07:11;;;;;;;5.30;2.77;;;22.90;55.90;;;;;;1829616;77;21036;-58
2022/05/17 08:09:40;;;;;;;5.50;2.80;;;22.90;55.60;;;;;;1826868;77;21122;-58
2022/05/17 08:12:10;;;;;;;6.60;2.90;;;23.00;55.20;;;;;;1826424;77;21107;-57
2022/05/17 08:14:40;;;;;;;4.53;2.52;;;23.00;54.70;;;;;;1850532;76;21059;-60
2022/05/17 08:17:10;;;;;;;4.80;2.52;;;23.10;54.60;;;;;;1878805;76;21205;-60
2022/05/17 08:19:40;;;;;;;4.30;3.12;;;23.20;54.00;;;;;;1846037;77;21541;-56
2022/05/17 08:22:12;;;;;;;6.05;3.22;;;23.30;53.80;;;;;;1879893;75;21037;-57
2022/05/17 08:27:37;;;;;;;3.85;2.70;;;23.30;53.10;;;;;;1874410;76;21045;-56
2022/05/17 08:30:12;;;;;;;4.65;2.30;;;23.20;53.10;;;;;;1846459;77;21166;-57
2022/05/17 08:35:42;;;;;;;7.20;2.75;;;23.30;52.90;;;;;;1851130;77;21106;-56
2022/05/17 08:38:13;;;;;;;4.40;2.55;;;23.40;53.50;;;;;;1881394;76;21506;-56
2022/05/17 08:40:51;;;;;;;5.83;2.90;;;23.40;52.80;;;;;;1880908;76;21072;-56
2022/05/17 08:43:42;;;;;;;6.67;2.52;;;23.50;52.80;;;;;;1858276;76;21150;-56
2022/05/17 08:46:53;;;;;;;5.78;2.52;;;23.60;52.30;;;;;;1856466;76;21251;-57
2022/05/17 08:49:33;;;;;;;7.87;3.12;;;23.60;52.20;;;;;;1852907;77;21519;-56
2022/05/17 08:52:20;;;;;;;7.42;2.83;;;23.50;52.00;;;;;;1854287;76;21068;-55
2022/05/17 08:55:02;;;;;;;6.37;3.00;;;23.60;52.30;;;;;;1856018;77;21500;-55
2022/05/17 08:57:49;;;;;;;3.30;2.62;;;23.60;52.20;;;;;;1873424;76;21089;-56
2022/05/17 09:00:24;;;;;;;3.58;2.40;;;23.60;52.20;;;;;;1859867;77;21160;-56
2022/05/17 09:02:56;;;;;;;12.33;3.00;;;23.60;52.10;;;;;;1857615;77;21041;-56
2022/05/17 09:05:37;;;;;;;4.03;2.40;;;23.60;52.20;;;;;;1858384;77;21542;-55
2022/05/17 09:08:30;;;;;;;2.83;2.20;;;23.80;51.70;;;;;;1853320;77;21100;-56
2022/05/17 09:11:19;;;;;;;3.75;2.30;;;23.90;51.60;;;;;;1858690;76;21103;-56
2022/05/17 09:14:07;;;;;;;6.62;2.95;;;24.00;51.50;;;;;;1860851;76;21078;-55
2022/05/17 09:16:39;;;;;;;3.08;1.98;;;24.10;51.10;;;;;;1861154;76;21547;-62
2022/05/17 09:19:09;;;;;;;4.78;2.20;;;24.20;50.30;;;;;;1849405;76;21174;-61
2022/05/17 09:21:41;;;;;;;10.32;4.30;;;24.10;50.40;;;;;;1832549;76;21052;-63
2022/05/17 09:24:13;;;;;;;4.37;2.10;;;24.10;50.40;;;;;;1866142;76;21586;-64
2022/05/17 09:26:48;;;;;;;8.20;3.85;;;24.10;50.50;;;;;;1866860;76;21205;-64
2022/05/17 09:29:54;;;;;;;4.03;2.33;;;24.20;50.30;;;;;;1852359;76;21435;-64
2022/05/17 09:32:33;;;;;;;10.65;3.55;;;24.20;49.70;;;;;;1859257;76;21204;-64
2022/05/17 09:35:05;;;;;;;5.72;2.65;;;24.20;49.80;;;;;;1860156;76;21048;-65
2022/05/17 09:37:37;;;;;;;5.72;2.42;;;24.30;49.50;;;;;;1857816;76;21072;-65
2022/05/17 09:40:09;;;;;;;6.33;2.77;;;24.40;49.50;;;;;;1862089;76;21021;-64
2022/05/17 09:43:01;;;;;;;5.47;2.58;;;24.40;49.00;;;;;;1872479;76;21029;-64
2022/05/17 09:46:02;;;;;;;5.42;2.20;;;24.50;48.90;;;;;;1863278;76;21084;-60
2022/05/17 09:52:31;;;;;;;8.95;2.77;;;24.60;48.70;;;;;;1839442;76;21096;-60
2022/05/17 09:53:46;;;;;;;3.10;2.25;;;24.60;48.60;;;;;;1867190;75;21122;-62
2022/05/17 09:56:16;;;;;;;7.17;2.92;;;24.70;47.80;;;;;;1858557;76;21177;-63
2022/05/17 09:58:47;;;;;;;5.80;2.22;;;24.60;48.00;;;;;;1858740;76;21548;-64
2022/05/17 10:01:21;;;;;;;8.23;2.40;;;24.60;48.20;;;;;;1859514;76;21092;-63
2022/05/17 10:04:05;;;;;;;3.30;2.12;;;24.60;48.20;;;;;;1876189;76;21052;-64
2022/05/17 10:06:41;;;;;;;5.55;2.52;;;24.60;48.60;;;;;;1840572;76;21119;-64
2022/05/17 11:06:12;;;;;;;3.17;2.45;;;23.30;53.00;;;;;;1926033;72;27031;-63
2022/05/17 11:12:12;;;;;;;4.62;2.87;;;23.30;53.10;;;;;;1979359;72;21056;-63
2022/05/17 11:14:58;;;;;;;9.23;3.33;;;23.40;52.70;;;;;;1979347;72;20993;-60
2022/05/17 11:17:50;;;;;;;8.08;2.52;;;23.50;52.80;;;;;;1978510;72;21065;-60
2022/05/17 11:20:32;;;;;;;13.88;5.45;;;23.50;52.00;;;;;;1977934;72;21072;-60
2022/05/17 11:23:04;;;;;;;2.52;2.30;;;23.50;51.20;;;;;;1979388;72;21004;-60
2022/05/17 11:25:37;;;;;;;4.47;2.77;;;23.50;51.20;;;;;;1979515;72;21546;-60
2022/05/17 11:28:12;;;;;;;5.58;1.90;;;23.60;51.30;;;;;;1979842;72;21013;-60
2022/05/17 11:30:49;;;;;;;6.50;2.62;;;23.70;50.70;;;;;;1971758;72;21098;-60
2022/05/17 11:33:28;;;;;;;6.97;2.40;;;23.70;50.50;;;;;;1979580;72;21158;-60
2022/05/17 11:36:03;;;;;;;5.28;3.33;;;23.80;50.60;;;;;;1975777;72;21082;-60
2022/05/17 11:38:38;;;;;;;5.62;2.33;;;23.80;50.60;;;;;;1979616;72;20989;-60
2022/05/17 11:41:19;;;;;;;4.67;2.37;;;23.90;50.60;;;;;;1979465;72;21106;-60
2022/05/17 11:43:57;;;;;;;9.10;3.15;;;23.90;50.20;;;;;;1978665;72;21099;-60
2022/05/17 11:46:31;;;;;;;4.08;2.30;;;23.90;50.70;;;;;;1979442;72;21016;-60
2022/05/17 11:49:00;;;;;;;;;;;23.90;49.70;;;;;;1982409;72;21451;-60
2022/05/17 11:51:35;;;;;;;4.62;2.52;;;23.90;49.40;;;;;;1979574;72;20087;-61
2022/05/17 11:54:23;;;;;;;;;;;;;;;;;;;;;
2022/05/17 11:57:03;;;;;;;6.87;3.47;;;23.80;50.50;;;;;;1807825;78;21551;-60
2022/05/17 11:59:38;;;;;;;4.58;2.47;;;23.90;50.20;;;;;;1808091;79;21032;-60
2022/05/17 12:02:13;;;;;;;5.25;2.85;;;24.00;50.00;;;;;;1808092;79;21115;-60
2022/05/17 12:04:45;;;;;;;7.12;2.72;;;24.00;49.80;;;;;;1807968;78;21052;-60
2022/05/17 12:07:22;;;;;;;4.83;1.92;;;24.10;49.00;;;;;;1807922;78;21170;-60
2022/05/17 12:09:54;;;;;;;4.20;2.12;;;24.20;48.80;;;;;;1807816;78;21086;-60
2022/05/17 12:12:29;;;;;;;2.77;2.47;;;24.20;48.40;;;;;;1804660;79;21565;-59
2022/05/17 12:15:20;;;;;;;5.10;2.85;;;24.10;48.30;;;;;;1807800;78;21494;-59
2022/05/17 12:18:13;;;;;;;3.83;2.85;;;24.20;49.10;;;;;;1807351;78;21032;-59
2022/05/17 12:20:54;;;;;;;7.80;2.72;;;24.20;49.80;;;;;;1807357;79;21076;-60
2022/05/17 12:23:27;;;;;;;4.92;4.08;;;24.30;49.40;;;;;;1805598;79;21518;-59
2022/05/17 12:26:11;;;;;;;6.97;2.90;;;24.30;49.70;;;;;;1806509;79;21126;-59
2022/05/17 12:28:49;;;;;;;6.53;2.70;;;24.30;49.10;;;;;;1807444;79;21056;-60
2022/05/17 12:31:25;;;;;;;7.00;2.60;;;24.30;48.30;;;;;;1807381;78;21064;-60
2022/05/17 12:33:56;;;;;;;7.47;2.77;;;24.20;48.80;;;;;;1807130;78;21052;-60
2022/05/17 12:36:28;;;;;;;3.72;2.62;;;24.20;48.80;;;;;;1807617;78;21104;-59
2022/05/17 12:44:48;;;;;;;7.42;3.55;;;24.20;48.90;;;;;;1807286;78;21099;-59
2022/05/17 12:47:26;;;;;;;3.45;2.22;;;24.20;48.90;;;;;;1807337;79;21111;-59
2022/05/17 12:49:59;;;;;;;6.25;2.52;;;24.30;49.00;;;;;;1782968;79;21075;-60
2022/05/17 12:52:39;;;;;;;2.92;2.20;;;24.30;48.50;;;;;;1807256;78;21056;-60
2022/05/17 12:55:14;;;;;;;7.75;3.22;;;24.20;48.10;;;;;;1807651;79;21139;-59
2022/05/17 12:57:44;;;;;;;4.28;2.47;;;24.30;48.80;;;;;;1813310;79;21018;-60
2022/05/17 13:00:18;;;;;;;3.83;2.70;;;24.30;48.80;;;;;;1813277;79;21027;-60
2022/05/17 13:02:51;;;;;;;4.25;2.42;;;24.40;48.80;;;;;;1807904;78;21316;-59
2022/05/17 13:05:38;;;;;;;4.75;2.47;;;24.40;48.50;;;;;;1813336;79;21077;-60
2022/05/17 13:08:10;;;;;;;4.25;2.30;;;24.50;48.40;;;;;;1813325;79;20991;-60
2022/05/17 13:10:42;;;;;;;10.05;3.08;;;24.50;48.10;;;;;;1812702;79;21047;-60
2022/05/17 13:13:22;;;;;;;6.12;2.58;;;24.40;47.70;;;;;;1813474;79;21007;-60
2022/05/17 13:15:57;;;;;;;5.55;2.45;;;24.50;47.90;;;;;;1813161;79;21458;-60
2022/05/17 13:18:35;;;;;;;7.95;3.00;;;24.50;48.20;;;;;;1813288;79;20999;-60
2022/05/17 13:21:07;;;;;;;4.10;2.55;;;24.40;48.40;;;;;;1812710;79;21549;-59
2022/05/17 13:23:36;;;;;;;7.03;2.90;;;24.30;48.70;;;;;;1813146;79;21027;-59
2022/05/17 13:26:06;;;;;;;9.88;3.62;;;24.10;49.10;;;;;;1813492;79;21024;-59
2022/05/17 13:28:36;;;;;;;8.08;2.60;;;24.00;49.30;;;;;;1813276;79;21022;-59
2022/05/17 13:31:10;;;;;;;7.25;3.17;;;23.90;49.60;;;;;;1813321;79;20998;-59
2022/05/17 13:33:40;;;;;;;8.40;3.05;;;23.80;49.90;;;;;;1810865;78;21086;-59
2022/05/17 13:36:12;;;;;;;5.83;3.00;;;23.70;50.20;;;;;;1813428;79;21398;-59
2022/05/17 13:38:42;;;;;;;6.25;3.08;;;23.60;50.50;;;;;;1813382;79;21462;-59
2022/05/17 13:41:32;;;;;;;4.70;3.27;;;23.50;50.70;;;;;;1813502;79;21023;-59
2022/05/17 13:44:02;;;;;;;4.67;3.45;;;23.40;51.10;;;;;;1813399;79;21019;-60
2022/05/17 13:46:42;;;;;;;5.12;3.60;;;23.30;50.90;;;;;;1813499;79;21055;-60
2022/05/17 13:49:29;;;;;;;8.75;4.75;;;23.20;50.90;;;;;;1812906;79;21097;-60
2022/05/17 13:52:04;;;;;;;8.85;3.60;;;23.10;51.10;;;;;;1807912;79;21058;-60
2022/05/17 13:54:43;;;;;;;7.40;3.27;;;22.90;50.90;;;;;;1813323;79;21482;-60
2022/05/17 13:57:24;;;;;;;7.67;4.03;;;22.80;51.30;;;;;;1813458;79;21059;-60
2022/05/17 13:59:56;;;;;;;7.33;3.87;;;22.70;51.60;;;;;;1813396;79;21015;-60
2022/05/17 14:02:41;;;;;;;4.83;3.12;;;22.50;52.00;;;;;;1813513;79;21450;-60
2022/05/17 14:05:19;;;;;;;5.08;3.30;;;22.30;52.60;;;;;;1806968;78;21159;-60
2022/05/17 14:13:57;;;;;;;5.47;2.70;;;21.90;54.00;;;;;;1813338;79;21106;-60
2022/05/17 14:16:30;;;;;;;6.50;3.30;;;21.80;54.60;;;;;;1813343;79;21086;-60
2022/05/17 14:19:04;;;;;;;5.20;3.80;;;21.60;54.90;;;;;;1813571;79;21031;-60
2022/05/17 14:21:33;;;;;;;6.08;3.67;;;21.50;55.30;;;;;;1813420;79;21108;-60
2022/05/17 14:24:02;;;;;;;10.35;4.30;;;21.40;55.90;;;;;;1813386;79;21019;-60
2022/05/17 14:26:45;;;;;;;8.93;4.35;;;21.40;56.10;;;;;;1813363;79;21497;-60
2022/05/17 14:29:34;;;;;;;9.83;4.22;;;21.40;56.10;;;;;;1762155;81;21153;-59
2022/05/17 14:32:05;;;;;;;6.70;3.72;;;21.40;56.30;;;;;;1742928;81;21090;-59
2022/05/17 14:34:35;;;;;;;7.42;4.37;;;21.40;56.40;;;;;;1743016;82;21050;-59
2022/05/17 14:37:05;;;;;;;5.87;3.27;;;21.50;56.60;;;;;;1742926;81;21058;-60
2022/05/17 14:39:34;;;;;;;6.87;3.08;;;21.60;56.40;;;;;;1743036;81;21046;-59
2022/05/17 14:42:04;;;;;;;4.80;2.55;;;21.70;56.30;;;;;;1743037;81;21074;-59
2022/05/17 14:44:34;;;;;;;6.70;3.47;;;21.70;55.60;;;;;;1742893;81;21050;-59